gordon.dewis.ca - Random musings from Gordon

Subscribe

Perfect weather for dragonboating

June 19, 2015 @ 14:58 By: gordon Category: Dragonboats, Weather

Compared to this time last week, the weather this evening looks perfect for dragonboating:

TAF CYOW 191738Z 1918/2018 30008KT P6SM FEW040
BECMG 2001/2003 VRB03KT
RMK NXT FCST BY 192100Z=

Almost no wind or clouds in the forecast. I think this will make three practices in a row that I won’t have needed head-to-toe Goretex. 🙂

Leave a Reply

CAPTCHA
*